sensor_id;sensor_type;location;lat;lon;timestamp;temperature;humidity
21355;DHT22;10835;50.148;19.760;2022-08-19T00:01:46;35.50;46.90
21355;DHT22;10835;50.148;19.760;2022-08-19T00:04:21;35.50;47.00
21355;DHT22;10835;50.148;19.760;2022-08-19T00:06:51;35.50;47.00
21355;DHT22;10835;50.148;19.760;2022-08-19T00:09:21;35.40;46.80
21355;DHT22;10835;50.148;19.760;2022-08-19T00:11:49;35.40;47.00
21355;DHT22;10835;50.148;19.760;2022-08-19T00:14:18;35.20;47.00
21355;DHT22;10835;50.148;19.760;2022-08-19T00:16:48;34.80;47.30
21355;DHT22;10835;50.148;19.760;2022-08-19T00:19:18;34.90;48.00
21355;DHT22;10835;50.148;19.760;2022-08-19T00:21:46;34.80;47.90
21355;DHT22;10835;50.148;19.760;2022-08-19T00:24:16;34.50;48.30
21355;DHT22;10835;50.148;19.760;2022-08-19T00:26:44;33.90;49.00
21355;DHT22;10835;50.148;19.760;2022-08-19T00:29:15;34.00;49.60
21355;DHT22;10835;50.148;19.760;2022-08-19T00:31:45;34.10;49.60
21355;DHT22;10835;50.148;19.760;2022-08-19T00:34:14;34.20;49.50
21355;DHT22;10835;50.148;19.760;2022-08-19T00:36:43;34.10;49.30
21355;DHT22;10835;50.148;19.760;2022-08-19T00:39:11;33.90;49.40
21355;DHT22;10835;50.148;19.760;2022-08-19T00:41:42;33.90;49.70
21355;DHT22;10835;50.148;19.760;2022-08-19T00:44:16;34.20;49.70
21355;DHT22;10835;50.148;19.760;2022-08-19T00:46:48;34.00;49.40
21355;DHT22;10835;50.148;19.760;2022-08-19T00:49:28;34.00;49.50
21355;DHT22;10835;50.148;19.760;2022-08-19T00:52:00;34.00;49.80
21355;DHT22;10835;50.148;19.760;2022-08-19T00:54:32;33.80;49.60
21355;DHT22;10835;50.148;19.760;2022-08-19T00:57:04;33.60;50.10
21355;DHT22;10835;50.148;19.760;2022-08-19T00:59:35;33.60;50.40
21355;DHT22;10835;50.148;19.760;2022-08-19T01:02:24;33.70;50.20
21355;DHT22;10835;50.148;19.760;2022-08-19T01:04:53;33.70;50.20
21355;DHT22;10835;50.148;19.760;2022-08-19T01:07:21;33.80;50.10
21355;DHT22;10835;50.148;19.760;2022-08-19T01:09:49;33.70;50.00
21355;DHT22;10835;50.148;19.760;2022-08-19T01:12:19;33.40;50.40
21355;DHT22;10835;50.148;19.760;2022-08-19T01:14:49;33.20;50.40
21355;DHT22;10835;50.148;19.760;2022-08-19T01:17:18;33.40;50.70
21355;DHT22;10835;50.148;19.760;2022-08-19T01:19:47;33.30;50.50
21355;DHT22;10835;50.148;19.760;2022-08-19T01:22:25;33.00;50.90
21355;DHT22;10835;50.148;19.760;2022-08-19T01:24:59;32.70;51.30
21355;DHT22;10835;50.148;19.760;2022-08-19T01:27:37;33.00;51.80
21355;DHT22;10835;50.148;19.760;2022-08-19T01:30:13;32.80;51.40
21355;DHT22;10835;50.148;19.760;2022-08-19T01:32:41;32.90;51.70
21355;DHT22;10835;50.148;19.760;2022-08-19T01:35:12;32.80;51.60
21355;DHT22;10835;50.148;19.760;2022-08-19T01:37:50;32.80;51.60
21355;DHT22;10835;50.148;19.760;2022-08-19T01:40:22;32.90;51.70
21355;DHT22;10835;50.148;19.760;2022-08-19T01:42:51;33.00;51.50
21355;DHT22;10835;50.148;19.760;2022-08-19T01:45:22;33.00;52.20
21355;DHT22;10835;50.148;19.760;2022-08-19T01:47:52;32.90;51.40
21355;DHT22;10835;50.148;19.760;2022-08-19T01:50:29;32.80;51.60
21355;DHT22;10835;50.148;19.760;2022-08-19T01:52:59;32.70;51.70
21355;DHT22;10835;50.148;19.760;2022-08-19T01:55:33;32.80;51.60
21355;DHT22;10835;50.148;19.760;2022-08-19T01:58:08;32.90;51.80
21355;DHT22;10835;50.148;19.760;2022-08-19T02:00:38;32.90;51.60
21355;DHT22;10835;50.148;19.760;2022-08-19T02:03:10;32.60;51.90
21355;DHT22;10835;50.148;19.760;2022-08-19T02:05:39;32.60;52.10
21355;DHT22;10835;50.148;19.760;2022-08-19T02:08:10;32.50;52.50
21355;DHT22;10835;50.148;19.760;2022-08-19T02:10:39;32.20;52.10
21355;DHT22;10835;50.148;19.760;2022-08-19T02:13:08;31.90;52.80
21355;DHT22;10835;50.148;19.760;2022-08-19T02:15:37;32.30;52.90
21355;DHT22;10835;50.148;19.760;2022-08-19T02:18:05;32.40;52.50
21355;DHT22;10835;50.148;19.760;2022-08-19T02:20:34;32.30;52.50
21355;DHT22;10835;50.148;19.760;2022-08-19T02:23:02;32.40;52.30
21355;DHT22;10835;50.148;19.760;2022-08-19T02:25:31;32.60;52.00
21355;DHT22;10835;50.148;19.760;2022-08-19T02:28:00;32.80;52.10
21355;DHT22;10835;50.148;19.760;2022-08-19T02:30:28;32.80;51.80
21355;DHT22;10835;50.148;19.760;2022-08-19T02:32:56;32.80;51.60
21355;DHT22;10835;50.148;19.760;2022-08-19T02:35:25;32.60;51.70
21355;DHT22;10835;50.148;19.760;2022-08-19T02:37:53;32.40;52.00
21355;DHT22;10835;50.148;19.760;2022-08-19T02:40:40;32.60;52.30
21355;DHT22;10835;50.148;19.760;2022-08-19T02:43:08;32.60;51.70
21355;DHT22;10835;50.148;19.760;2022-08-19T02:45:38;32.70;51.70
21355;DHT22;10835;50.148;19.760;2022-08-19T02:48:07;32.70;51.50
21355;DHT22;10835;50.148;19.760;2022-08-19T02:50:48;32.70;51.60
21355;DHT22;10835;50.148;19.760;2022-08-19T02:53:19;32.80;51.40
21355;DHT22;10835;50.148;19.760;2022-08-19T02:55:50;32.70;51.30
21355;DHT22;10835;50.148;19.760;2022-08-19T02:58:19;32.70;51.70
21355;DHT22;10835;50.148;19.760;2022-08-19T03:00:49;32.50;51.60
21355;DHT22;10835;50.148;19.760;2022-08-19T03:03:19;32.60;51.40
21355;DHT22;10835;50.148;19.760;2022-08-19T03:05:47;32.50;51.70
21355;DHT22;10835;50.148;19.760;2022-08-19T03:08:23;32.60;51.80
21355;DHT22;10835;50.148;19.760;2022-08-19T03:10:53;32.60;51.70
21355;DHT22;10835;50.148;19.760;2022-08-19T03:13:21;32.60;51.60
21355;DHT22;10835;50.148;19.760;2022-08-19T03:15:50;32.60;51.70
21355;DHT22;10835;50.148;19.760;2022-08-19T03:18:18;32.50;51.90
21355;DHT22;10835;50.148;19.760;2022-08-19T03:20:50;32.40;52.10
21355;DHT22;10835;50.148;19.760;2022-08-19T03:23:19;32.40;51.90
21355;DHT22;10835;50.148;19.760;2022-08-19T03:25:50;32.40;51.90
21355;DHT22;10835;50.148;19.760;2022-08-19T03:28:40;32.40;52.00
21355;DHT22;10835;50.148;19.760;2022-08-19T03:31:16;32.00;52.10
21355;DHT22;10835;50.148;19.760;2022-08-19T03:34:04;32.00;52.70
21355;DHT22;10835;50.148;19.760;2022-08-19T03:36:33;32.30;52.40
21355;DHT22;10835;50.148;19.760;2022-08-19T03:39:02;31.90;52.80
21355;DHT22;10835;50.148;19.760;2022-08-19T03:41:35;31.70;52.70
21355;DHT22;10835;50.148;19.760;2022-08-19T03:44:14;31.90;53.10
21355;DHT22;10835;50.148;19.760;2022-08-19T03:46:45;32.00;53.10
21355;DHT22;10835;50.148;19.760;2022-08-19T03:49:13;31.90;52.70
21355;DHT22;10835;50.148;19.760;2022-08-19T03:51:45;32.10;52.90
21355;DHT22;10835;50.148;19.760;2022-08-19T03:54:15;32.30;52.70
21355;DHT22;10835;50.148;19.760;2022-08-19T03:56:45;32.20;52.40
21355;DHT22;10835;50.148;19.760;2022-08-19T03:59:18;32.30;52.60
21355;DHT22;10835;50.148;19.760;2022-08-19T04:01:46;32.40;52.30
21355;DHT22;10835;50.148;19.760;2022-08-19T04:04:17;32.50;52.10
21355;DHT22;10835;50.148;19.760;2022-08-19T04:06:45;32.50;52.20
21355;DHT22;10835;50.148;19.760;2022-08-19T04:09:14;32.60;52.00
21355;DHT22;10835;50.148;19.760;2022-08-19T04:11:45;32.50;51.80
21355;DHT22;10835;50.148;19.760;2022-08-19T04:14:17;32.30;52.20
21355;DHT22;10835;50.148;19.760;2022-08-19T04:16:46;32.40;52.50
21355;DHT22;10835;50.148;19.760;2022-08-19T04:19:16;32.40;52.30
21355;DHT22;10835;50.148;19.760;2022-08-19T04:21:47;32.40;52.20
21355;DHT22;10835;50.148;19.760;2022-08-19T04:24:16;32.50;52.30
21355;DHT22;10835;50.148;19.760;2022-08-19T04:26:46;32.10;52.50
21355;DHT22;10835;50.148;19.760;2022-08-19T04:29:18;32.30;52.80
21355;DHT22;10835;50.148;19.760;2022-08-19T04:31:49;32.40;52.50
21355;DHT22;10835;50.148;19.760;2022-08-19T04:34:20;32.30;52.70
21355;DHT22;10835;50.148;19.760;2022-08-19T04:36:52;32.50;52.70
21355;DHT22;10835;50.148;19.760;2022-08-19T04:39:22;32.60;52.40
21355;DHT22;10835;50.148;19.760;2022-08-19T04:42:11;32.70;52.40
21355;DHT22;10835;50.148;19.760;2022-08-19T04:44:58;32.80;52.50
21355;DHT22;10835;50.148;19.760;2022-08-19T04:47:27;33.00;52.20
21355;DHT22;10835;50.148;19.760;2022-08-19T04:50:15;33.10;51.80
21355;DHT22;10835;50.148;19.760;2022-08-19T04:52:44;33.30;52.20
21355;DHT22;10835;50.148;19.760;2022-08-19T04:55:13;33.30;51.70
21355;DHT22;10835;50.148;19.760;2022-08-19T04:57:41;33.50;51.50
21355;DHT22;10835;50.148;19.760;2022-08-19T05:00:11;33.70;51.70
21355;DHT22;10835;50.148;19.760;2022-08-19T05:02:40;33.80;51.50
21355;DHT22;10835;50.148;19.760;2022-08-19T05:05:08;34.10;51.20
21355;DHT22;10835;50.148;19.760;2022-08-19T05:07:37;34.20;50.40
21355;DHT22;10835;50.148;19.760;2022-08-19T05:10:06;34.40;49.90
21355;DHT22;10835;50.148;19.760;2022-08-19T05:12:34;34.60;49.60
21355;DHT22;10835;50.148;19.760;2022-08-19T05:15:08;34.80;50.10
21355;DHT22;10835;50.148;19.760;2022-08-19T05:17:37;35.00;49.10
21355;DHT22;10835;50.148;19.760;2022-08-19T05:30:47;34.90;48.40
21355;DHT22;10835;50.148;19.760;2022-08-19T05:33:18;35.40;48.00
21355;DHT22;10835;50.148;19.760;2022-08-19T05:35:46;35.50;48.20
21355;DHT22;10835;50.148;19.760;2022-08-19T05:38:16;35.50;48.20
21355;DHT22;10835;50.148;19.760;2022-08-19T05:40:44;35.70;48.10
21355;DHT22;10835;50.148;19.760;2022-08-19T05:43:14;35.80;48.20
21355;DHT22;10835;50.148;19.760;2022-08-19T05:45:43;35.50;48.00
21355;DHT22;10835;50.148;19.760;2022-08-19T05:48:15;35.60;47.60
21355;DHT22;10835;50.148;19.760;2022-08-19T05:50:47;35.60;47.90
21355;DHT22;10835;50.148;19.760;2022-08-19T05:53:17;35.70;48.20
21355;DHT22;10835;50.148;19.760;2022-08-19T05:55:45;35.80;48.30
21355;DHT22;10835;50.148;19.760;2022-08-19T05:58:13;35.90;48.50
21355;DHT22;10835;50.148;19.760;2022-08-19T06:00:43;36.00;48.60
21355;DHT22;10835;50.148;19.760;2022-08-19T06:03:11;35.80;48.70
21355;DHT22;10835;50.148;19.760;2022-08-19T06:05:41;36.00;48.50
21355;DHT22;10835;50.148;19.760;2022-08-19T06:08:18;36.20;48.60
21355;DHT22;10835;50.148;19.760;2022-08-19T06:11:13;36.30;48.20
21355;DHT22;10835;50.148;19.760;2022-08-19T06:13:43;36.40;47.70
21355;DHT22;10835;50.148;19.760;2022-08-19T06:16:14;36.40;47.90
21355;DHT22;10835;50.148;19.760;2022-08-19T06:18:46;36.60;47.80
21355;DHT22;10835;50.148;19.760;2022-08-19T06:21:16;36.70;47.90
21355;DHT22;10835;50.148;19.760;2022-08-19T06:23:45;36.70;47.30
21355;DHT22;10835;50.148;19.760;2022-08-19T06:26:15;36.80;47.50
21355;DHT22;10835;50.148;19.760;2022-08-19T06:28:43;37.00;47.40
21355;DHT22;10835;50.148;19.760;2022-08-19T06:31:13;37.10;47.10
21355;DHT22;10835;50.148;19.760;2022-08-19T06:33:43;37.20;46.80
21355;DHT22;10835;50.148;19.760;2022-08-19T06:36:22;37.20;46.20
21355;DHT22;10835;50.148;19.760;2022-08-19T06:38:54;37.30;46.80
21355;DHT22;10835;50.148;19.760;2022-08-19T06:41:24;37.40;46.80
21355;DHT22;10835;50.148;19.760;2022-08-19T06:43:52;37.30;47.20
21355;DHT22;10835;50.148;19.760;2022-08-19T06:46:22;37.40;46.60
21355;DHT22;10835;50.148;19.760;2022-08-19T06:48:52;37.60;46.40
21355;DHT22;10835;50.148;19.760;2022-08-19T06:51:23;37.50;46.20
21355;DHT22;10835;50.148;19.760;2022-08-19T06:53:58;37.70;46.50
21355;DHT22;10835;50.148;19.760;2022-08-19T06:56:30;37.80;46.20
21355;DHT22;10835;50.148;19.760;2022-08-19T06:59:00;37.90;45.80
21355;DHT22;10835;50.148;19.760;2022-08-19T07:01:29;37.90;46.30
21355;DHT22;10835;50.148;19.760;2022-08-19T07:03:57;37.80;45.10
21355;DHT22;10835;50.148;19.760;2022-08-19T07:06:26;38.00;45.60
21355;DHT22;10835;50.148;19.760;2022-08-19T07:09:12;37.70;45.60
21355;DHT22;10835;50.148;19.760;2022-08-19T07:11:45;38.10;46.40
21355;DHT22;10835;50.148;19.760;2022-08-19T07:14:15;38.10;45.80
21355;DHT22;10835;50.148;19.760;2022-08-19T07:16:47;38.20;45.10
21355;DHT22;10835;50.148;19.760;2022-08-19T07:19:16;37.70;45.40
21355;DHT22;10835;50.148;19.760;2022-08-19T07:21:47;38.00;46.30
21355;DHT22;10835;50.148;19.760;2022-08-19T07:24:17;38.30;44.90
21355;DHT22;10835;50.148;19.760;2022-08-19T07:26:51;38.40;45.10
21355;DHT22;10835;50.148;19.760;2022-08-19T07:29:21;38.60;44.30
21355;DHT22;10835;50.148;19.760;2022-08-19T07:31:56;38.60;44.30
21355;DHT22;10835;50.148;19.760;2022-08-19T07:34:28;38.60;44.30
21355;DHT22;10835;50.148;19.760;2022-08-19T07:36:58;38.50;44.10
21355;DHT22;10835;50.148;19.760;2022-08-19T07:39:29;38.70;44.30
21355;DHT22;10835;50.148;19.760;2022-08-19T07:42:06;38.90;43.00
21355;DHT22;10835;50.148;19.760;2022-08-19T07:44:40;38.60;43.40
21355;DHT22;10835;50.148;19.760;2022-08-19T07:47:22;38.90;43.20
21355;DHT22;10835;50.148;19.760;2022-08-19T07:50:16;38.80;43.50
21355;DHT22;10835;50.148;19.760;2022-08-19T07:52:46;39.00;43.00
21355;DHT22;10835;50.148;19.760;2022-08-19T07:55:18;39.20;43.30
21355;DHT22;10835;50.148;19.760;2022-08-19T07:58:07;39.20;43.40
21355;DHT22;10835;50.148;19.760;2022-08-19T08:00:35;39.00;43.20
21355;DHT22;10835;50.148;19.760;2022-08-19T08:03:03;39.20;43.10
21355;DHT22;10835;50.148;19.760;2022-08-19T08:05:32;39.10;43.20
21355;DHT22;10835;50.148;19.760;2022-08-19T08:08:28;39.20;41.80
21355;DHT22;10835;50.148;19.760;2022-08-19T08:11:25;39.50;42.10
21355;DHT22;10835;50.148;19.760;2022-08-19T08:13:55;39.60;41.70
21355;DHT22;10835;50.148;19.760;2022-08-19T08:16:33;39.30;41.90
21355;DHT22;10835;50.148;19.760;2022-08-19T08:19:06;39.50;41.60
21355;DHT22;10835;50.148;19.760;2022-08-19T08:21:52;39.10;41.70
21355;DHT22;10835;50.148;19.760;2022-08-19T08:24:21;39.50;42.20
21355;DHT22;10835;50.148;19.760;2022-08-19T08:26:55;39.90;41.10
21355;DHT22;10835;50.148;19.760;2022-08-19T08:29:26;40.00;41.00
21355;DHT22;10835;50.148;19.760;2022-08-19T08:32:02;40.10;41.40
21355;DHT22;10835;50.148;19.760;2022-08-19T08:34:41;40.40;40.70
21355;DHT22;10835;50.148;19.760;2022-08-19T08:37:09;40.10;40.80
21355;DHT22;10835;50.148;19.760;2022-08-19T08:39:38;40.40;41.90
21355;DHT22;10835;50.148;19.760;2022-08-19T08:42:11;40.50;40.50
21355;DHT22;10835;50.148;19.760;2022-08-19T08:44:48;40.70;39.50
21355;DHT22;10835;50.148;19.760;2022-08-19T08:47:25;40.60;40.50
21355;DHT22;10835;50.148;19.760;2022-08-19T08:49:56;40.50;41.20
21355;DHT22;10835;50.148;19.760;2022-08-19T08:52:28;40.80;39.30
21355;DHT22;10835;50.148;19.760;2022-08-19T08:55:05;40.80;40.40
21355;DHT22;10835;50.148;19.760;2022-08-19T08:57:49;41.10;39.60
21355;DHT22;10835;50.148;19.760;2022-08-19T09:00:24;41.20;38.80
21355;DHT22;10835;50.148;19.760;2022-08-19T09:02:54;41.30;38.50
21355;DHT22;10835;50.148;19.760;2022-08-19T09:05:23;41.20;38.90
21355;DHT22;10835;50.148;19.760;2022-08-19T09:08:08;41.30;38.90
21355;DHT22;10835;50.148;19.760;2022-08-19T09:10:44;41.50;37.50
21355;DHT22;10835;50.148;19.760;2022-08-19T09:13:28;41.60;38.70
21355;DHT22;10835;50.148;19.760;2022-08-19T09:16:07;41.60;38.80
21355;DHT22;10835;50.148;19.760;2022-08-19T09:18:39;41.60;38.80
21355;DHT22;10835;50.148;19.760;2022-08-19T09:21:10;41.70;38.70
21355;DHT22;10835;50.148;19.760;2022-08-19T09:23:38;41.80;37.50
21355;DHT22;10835;50.148;19.760;2022-08-19T09:26:10;41.90;37.40
21355;DHT22;10835;50.148;19.760;2022-08-19T09:28:43;42.00;36.90
21355;DHT22;10835;50.148;19.760;2022-08-19T09:31:16;42.00;36.60
21355;DHT22;10835;50.148;19.760;2022-08-19T09:33:45;42.10;36.70
21355;DHT22;10835;50.148;19.760;2022-08-19T09:36:20;42.10;36.70
21355;DHT22;10835;50.148;19.760;2022-08-19T09:39:03;41.70;37.20
21355;DHT22;10835;50.148;19.760;2022-08-19T09:41:43;41.70;37.50
21355;DHT22;10835;50.148;19.760;2022-08-19T09:44:15;41.90;37.40
21355;DHT22;10835;50.148;19.760;2022-08-19T09:46:45;41.90;36.70
21355;DHT22;10835;50.148;19.760;2022-08-19T09:49:15;42.00;36.20
21355;DHT22;10835;50.148;19.760;2022-08-19T09:51:44;42.00;36.90
21355;DHT22;10835;50.148;19.760;2022-08-19T09:54:17;41.70;36.00
21355;DHT22;10835;50.148;19.760;2022-08-19T09:56:52;41.90;36.20
21355;DHT22;10835;50.148;19.760;2022-08-19T09:59:20;42.20;34.80
21355;DHT22;10835;50.148;19.760;2022-08-19T10:01:48;42.30;35.10
21355;DHT22;10835;50.148;19.760;2022-08-19T10:04:18;42.50;35.60
21355;DHT22;10835;50.148;19.760;2022-08-19T10:06:49;42.60;35.30
21355;DHT22;10835;50.148;19.760;2022-08-19T10:09:21;42.70;35.10
21355;DHT22;10835;50.148;19.760;2022-08-19T10:12:01;42.70;34.40
21355;DHT22;10835;50.148;19.760;2022-08-19T10:14:29;42.90;35.30
21355;DHT22;10835;50.148;19.760;2022-08-19T10:16:58;43.10;34.00
21355;DHT22;10835;50.148;19.760;2022-08-19T10:19:30;43.10;34.40
21355;DHT22;10835;50.148;19.760;2022-08-19T10:22:03;43.10;33.30
21355;DHT22;10835;50.148;19.760;2022-08-19T10:24:38;43.20;32.60
21355;DHT22;10835;50.148;19.760;2022-08-19T10:27:08;43.10;33.70
21355;DHT22;10835;50.148;19.760;2022-08-19T10:29:36;42.90;33.00
21355;DHT22;10835;50.148;19.760;2022-08-19T10:32:12;42.90;33.30
21355;DHT22;10835;50.148;19.760;2022-08-19T10:34:40;43.10;33.80
21355;DHT22;10835;50.148;19.760;2022-08-19T10:37:15;43.20;33.30
21355;DHT22;10835;50.148;19.760;2022-08-19T10:39:54;43.20;32.10
21355;DHT22;10835;50.148;19.760;2022-08-19T10:42:24;43.40;33.30
21355;DHT22;10835;50.148;19.760;2022-08-19T10:44:52;43.40;33.10
21355;DHT22;10835;50.148;19.760;2022-08-19T10:47:20;43.40;32.20
21355;DHT22;10835;50.148;19.760;2022-08-19T10:49:57;43.50;32.90
21355;DHT22;10835;50.148;19.760;2022-08-19T10:52:45;43.40;32.30
21355;DHT22;10835;50.148;19.760;2022-08-19T10:55:17;43.50;33.50
21355;DHT22;10835;50.148;19.760;2022-08-19T10:58:04;43.60;31.80
21355;DHT22;10835;50.148;19.760;2022-08-19T11:00:37;43.50;31.40
21355;DHT22;10835;50.148;19.760;2022-08-19T11:03:05;43.60;32.00
21355;DHT22;10835;50.148;19.760;2022-08-19T11:05:35;43.70;32.10
21355;DHT22;10835;50.148;19.760;2022-08-19T11:08:06;43.60;31.10
21355;DHT22;10835;50.148;19.760;2022-08-19T11:10:51;43.80;31.10
21355;DHT22;10835;50.148;19.760;2022-08-19T11:13:21;43.80;31.20
21355;DHT22;10835;50.148;19.760;2022-08-19T11:15:57;43.80;30.00
21355;DHT22;10835;50.148;19.760;2022-08-19T11:18:32;43.90;30.70
21355;DHT22;10835;50.148;19.760;2022-08-19T11:21:09;44.00;30.60
21355;DHT22;10835;50.148;19.760;2022-08-19T11:23:37;44.10;30.80
21355;DHT22;10835;50.148;19.760;2022-08-19T11:26:05;44.10;30.50
21355;DHT22;10835;50.148;19.760;2022-08-19T11:28:35;44.20;30.30
21355;DHT22;10835;50.148;19.760;2022-08-19T11:31:03;43.90;30.70
21355;DHT22;10835;50.148;19.760;2022-08-19T11:33:31;44.10;30.90
21355;DHT22;10835;50.148;19.760;2022-08-19T11:36:00;44.10;31.70
21355;DHT22;10835;50.148;19.760;2022-08-19T11:38:29;44.20;31.70
21355;DHT22;10835;50.148;19.760;2022-08-19T11:40:59;44.10;31.70
21355;DHT22;10835;50.148;19.760;2022-08-19T11:43:28;43.90;31.80
21355;DHT22;10835;50.148;19.760;2022-08-19T11:46:05;44.10;31.70
21355;DHT22;10835;50.148;19.760;2022-08-19T11:48:34;43.90;30.80
21355;DHT22;10835;50.148;19.760;2022-08-19T11:51:05;43.90;31.40
21355;DHT22;10835;50.148;19.760;2022-08-19T11:53:34;43.90;30.70
21355;DHT22;10835;50.148;19.760;2022-08-19T11:56:03;43.80;31.10
21355;DHT22;10835;50.148;19.760;2022-08-19T11:58:35;43.90;32.20
21355;DHT22;10835;50.148;19.760;2022-08-19T12:01:07;43.90;31.80
21355;DHT22;10835;50.148;19.760;2022-08-19T12:03:37;43.70;32.50
21355;DHT22;10835;50.148;19.760;2022-08-19T12:06:07;43.90;31.40
21355;DHT22;10835;50.148;19.760;2022-08-19T12:08:37;44.00;31.40
21355;DHT22;10835;50.148;19.760;2022-08-19T12:11:05;43.90;31.40
21355;DHT22;10835;50.148;19.760;2022-08-19T12:13:35;43.90;32.20
21355;DHT22;10835;50.148;19.760;2022-08-19T12:16:09;44.10;31.80
21355;DHT22;10835;50.148;19.760;2022-08-19T12:18:39;44.10;31.00
21355;DHT22;10835;50.148;19.760;2022-08-19T12:21:10;44.10;30.80
21355;DHT22;10835;50.148;19.760;2022-08-19T12:23:40;44.20;30.80
21355;DHT22;10835;50.148;19.760;2022-08-19T12:26:09;44.10;30.70
21355;DHT22;10835;50.148;19.760;2022-08-19T12:28:37;44.00;30.70
21355;DHT22;10835;50.148;19.760;2022-08-19T12:31:09;44.00;31.60
21355;DHT22;10835;50.148;19.760;2022-08-19T12:33:39;44.10;31.60
21355;DHT22;10835;50.148;19.760;2022-08-19T12:36:09;44.10;31.90
21355;DHT22;10835;50.148;19.760;2022-08-19T12:38:39;44.10;31.40
21355;DHT22;10835;50.148;19.760;2022-08-19T12:41:09;44.20;31.30
21355;DHT22;10835;50.148;19.760;2022-08-19T12:43:38;44.20;31.80
21355;DHT22;10835;50.148;19.760;2022-08-19T12:46:10;44.20;31.30
21355;DHT22;10835;50.148;19.760;2022-08-19T12:48:39;44.30;31.20
21355;DHT22;10835;50.148;19.760;2022-08-19T12:51:10;44.20;31.70
21355;DHT22;10835;50.148;19.760;2022-08-19T12:53:39;44.20;31.40
21355;DHT22;10835;50.148;19.760;2022-08-19T12:56:08;44.20;31.70
21355;DHT22;10835;50.148;19.760;2022-08-19T12:58:38;44.20;31.80
21355;DHT22;10835;50.148;19.760;2022-08-19T13:01:17;44.10;31.80
21355;DHT22;10835;50.148;19.760;2022-08-19T13:03:49;43.90;31.50
21355;DHT22;10835;50.148;19.760;2022-08-19T13:06:19;44.20;32.10
21355;DHT22;10835;50.148;19.760;2022-08-19T13:08:48;44.20;31.40
21355;DHT22;10835;50.148;19.760;2022-08-19T13:11:19;44.10;32.00
21355;DHT22;10835;50.148;19.760;2022-08-19T13:13:51;44.10;31.40
21355;DHT22;10835;50.148;19.760;2022-08-19T13:16:23;43.90;32.30
21355;DHT22;10835;50.148;19.760;2022-08-19T13:18:51;44.00;32.40
21355;DHT22;10835;50.148;19.760;2022-08-19T13:21:20;44.10;32.40
21355;DHT22;10835;50.148;19.760;2022-08-19T13:23:50;44.00;32.50
21355;DHT22;10835;50.148;19.760;2022-08-19T13:26:19;44.00;31.70
21355;DHT22;10835;50.148;19.760;2022-08-19T13:28:47;43.90;32.70
21355;DHT22;10835;50.148;19.760;2022-08-19T13:31:36;43.90;32.70
21355;DHT22;10835;50.148;19.760;2022-08-19T13:34:28;43.80;32.20
21355;DHT22;10835;50.148;19.760;2022-08-19T13:36:57;43.70;32.20
21355;DHT22;10835;50.148;19.760;2022-08-19T13:39:25;43.70;32.10
21355;DHT22;10835;50.148;19.760;2022-08-19T13:41:54;43.70;31.70
21355;DHT22;10835;50.148;19.760;2022-08-19T13:44:22;43.80;32.40
21355;DHT22;10835;50.148;19.760;2022-08-19T13:46:52;43.80;31.90
21355;DHT22;10835;50.148;19.760;2022-08-19T13:49:20;43.70;31.80
21355;DHT22;10835;50.148;19.760;2022-08-19T13:51:49;43.70;31.80
21355;DHT22;10835;50.148;19.760;2022-08-19T13:54:18;43.70;31.20
21355;DHT22;10835;50.148;19.760;2022-08-19T13:56:47;43.70;31.30
21355;DHT22;10835;50.148;19.760;2022-08-19T13:59:15;43.70;31.40
21355;DHT22;10835;50.148;19.760;2022-08-19T14:01:44;43.80;32.20
21355;DHT22;10835;50.148;19.760;2022-08-19T14:04:13;43.80;31.30
21355;DHT22;10835;50.148;19.760;2022-08-19T14:06:41;43.70;30.80
21355;DHT22;10835;50.148;19.760;2022-08-19T14:09:09;43.60;31.10
21355;DHT22;10835;50.148;19.760;2022-08-19T14:11:38;43.60;30.30
21355;DHT22;10835;50.148;19.760;2022-08-19T14:14:06;43.50;30.40
21355;DHT22;10835;50.148;19.760;2022-08-19T14:16:37;43.50;30.70
21355;DHT22;10835;50.148;19.760;2022-08-19T14:19:05;43.50;30.30
21355;DHT22;10835;50.148;19.760;2022-08-19T14:21:36;43.50;31.10
21355;DHT22;10835;50.148;19.760;2022-08-19T14:24:10;43.50;30.30
21355;DHT22;10835;50.148;19.760;2022-08-19T14:26:38;43.50;30.90
21355;DHT22;10835;50.148;19.760;2022-08-19T14:29:09;43.50;30.90
21355;DHT22;10835;50.148;19.760;2022-08-19T14:31:37;43.30;30.90
21355;DHT22;10835;50.148;19.760;2022-08-19T14:34:08;43.20;31.40
21355;DHT22;10835;50.148;19.760;2022-08-19T14:36:38;43.30;31.70
21355;DHT22;10835;50.148;19.760;2022-08-19T14:39:06;43.10;31.90
21355;DHT22;10835;50.148;19.760;2022-08-19T14:41:35;43.20;32.00
21355;DHT22;10835;50.148;19.760;2022-08-19T14:44:03;43.20;31.80
21355;DHT22;10835;50.148;19.760;2022-08-19T14:46:32;43.10;31.70
21355;DHT22;10835;50.148;19.760;2022-08-19T14:49:00;43.10;31.80
21355;DHT22;10835;50.148;19.760;2022-08-19T14:51:35;43.00;32.20
21355;DHT22;10835;50.148;19.760;2022-08-19T14:54:04;43.00;32.50
21355;DHT22;10835;50.148;19.760;2022-08-19T14:56:33;42.90;32.60
21355;DHT22;10835;50.148;19.760;2022-08-19T14:59:01;42.90;33.10
21355;DHT22;10835;50.148;19.760;2022-08-19T15:01:29;42.80;32.70
21355;DHT22;10835;50.148;19.760;2022-08-19T15:03:58;42.90;32.70
21355;DHT22;10835;50.148;19.760;2022-08-19T15:06:26;42.80;32.80
21355;DHT22;10835;50.148;19.760;2022-08-19T15:08:55;42.70;32.40
21355;DHT22;10835;50.148;19.760;2022-08-19T15:11:31;42.70;32.40
21355;DHT22;10835;50.148;19.760;2022-08-19T15:13:59;42.60;32.50
21355;DHT22;10835;50.148;19.760;2022-08-19T15:16:29;42.70;33.20
21355;DHT22;10835;50.148;19.760;2022-08-19T15:18:58;42.80;33.40
21355;DHT22;10835;50.148;19.760;2022-08-19T15:21:27;42.80;33.30
21355;DHT22;10835;50.148;19.760;2022-08-19T15:23:57;42.70;32.20
21355;DHT22;10835;50.148;19.760;2022-08-19T15:26:26;42.70;32.50
21355;DHT22;10835;50.148;19.760;2022-08-19T15:28:56;42.60;31.50
21355;DHT22;10835;50.148;19.760;2022-08-19T15:31:25;42.70;32.30
21355;DHT22;10835;50.148;19.760;2022-08-19T15:33:58;42.60;32.10
21355;DHT22;10835;50.148;19.760;2022-08-19T15:36:27;42.60;32.70
21355;DHT22;10835;50.148;19.760;2022-08-19T15:38:57;42.60;31.80
21355;DHT22;10835;50.148;19.760;2022-08-19T15:41:28;42.60;31.30
21355;DHT22;10835;50.148;19.760;2022-08-19T15:44:03;42.50;31.60
21355;DHT22;10835;50.148;19.760;2022-08-19T15:46:37;42.40;31.70
21355;DHT22;10835;50.148;19.760;2022-08-19T15:49:05;42.40;32.20
21355;DHT22;10835;50.148;19.760;2022-08-19T15:51:35;42.30;32.40
21355;DHT22;10835;50.148;19.760;2022-08-19T15:54:07;42.20;32.90